createdAt,value
2022-08-04T00:02:33.840Z,99031.28
2022-08-04T00:05:05.467Z,99028.88
2022-08-04T00:07:51.143Z,99029.25
2022-08-04T00:10:20.498Z,99029.13
2022-08-04T00:12:50.168Z,99029.31
2022-08-04T00:15:18.136Z,99025.81
2022-08-04T00:17:49.281Z,99031.97
2022-08-04T00:20:19.523Z,99031.03
2022-08-04T00:22:48.717Z,99030.78
2022-08-04T00:25:16.880Z,99029.06
2022-08-04T00:27:44.101Z,99026.31
2022-08-04T00:30:11.336Z,99033.44
2022-08-04T00:32:41.511Z,99025.63
2022-08-04T00:35:15.080Z,99021.56
2022-08-04T00:37:44.885Z,99031.38
2022-08-04T00:40:23.936Z,99029.06
2022-08-04T00:43:10.668Z,99033.16
2022-08-04T00:46:16.021Z,99030.53
2022-08-04T00:48:41.587Z,99030.72
2022-08-04T00:51:26.019Z,99030.78
2022-08-04T00:54:11.583Z,99036.19
2022-08-04T00:56:52.389Z,99036.59
2022-08-04T01:00:03.876Z,99039.69
2022-08-04T01:02:49.577Z,99041.50
2022-08-04T01:06:00.105Z,99040.28
2022-08-04T01:08:34.673Z,99040.34
2022-08-04T01:11:31.847Z,99048.66
2022-08-04T01:13:58.632Z,99041.81
2022-08-04T01:16:27.208Z,99047.09
2022-08-04T01:19:01.161Z,99048.19
2022-08-04T01:21:31.034Z,99048.28
2022-08-04T01:24:16.674Z,99048.38
2022-08-04T01:26:57.647Z,99051.34
2022-08-04T01:29:29.314Z,99048.69
2022-08-04T01:32:26.079Z,99052.13
2022-08-04T01:35:47.224Z,99050.25
2022-08-04T01:38:21.636Z,99046.31
2022-08-04T01:40:53.892Z,99039.06
2022-08-04T01:43:21.700Z,99048.47
2022-08-04T01:45:51.601Z,99042.16
2022-08-04T01:48:25.152Z,99048.91
2022-08-04T01:50:54.366Z,99041.56
2022-08-04T01:53:21.605Z,99039.69
2022-08-04T01:55:55.339Z,99044.91
2022-08-04T01:58:24.889Z,99047.63
2022-08-04T02:01:08.602Z,99046.09
2022-08-04T02:04:18.104Z,99043.69
2022-08-04T02:06:58.333Z,99058.03
2022-08-04T02:09:54.502Z,99048.66
2022-08-04T02:12:33.313Z,99051.38
2022-08-04T02:15:07.981Z,99046.25
2022-08-04T02:17:46.505Z,99052.66
2022-08-04T02:20:23.321Z,99041.44
2022-08-04T02:22:59.701Z,99040.75
2022-08-04T02:25:29.683Z,99044.31
2022-08-04T02:28:20.842Z,99041.06
2022-08-04T02:31:16.412Z,99039.63
2022-08-04T02:33:53.943Z,99036.53
2022-08-04T02:36:34.865Z,99035.94
2022-08-04T02:39:04.830Z,99039.69
2022-08-04T02:41:33.651Z,99043.44
2022-08-04T02:44:03.826Z,99044.69
2022-08-04T02:46:32.347Z,99041.44
2022-08-04T02:49:03.148Z,99041.69
2022-08-04T02:51:35.810Z,99041.69
2022-08-04T02:54:05.599Z,99037.47
2022-08-04T02:56:34.642Z,99034.91
2022-08-04T02:59:07.903Z,99040.44
2022-08-04T03:01:35.281Z,99036.88
2022-08-04T03:04:24.547Z,99028.94
2022-08-04T03:06:52.285Z,99025.59
2022-08-04T03:09:25.205Z,99030.72
2022-08-04T03:12:03.956Z,99022.63
2022-08-04T03:14:58.581Z,99031.19
2022-08-04T03:17:56.179Z,99039.47
2022-08-04T03:20:51.093Z,99036.22
2022-08-04T03:23:36.795Z,99041.81
2022-08-04T03:26:09.802Z,99038.69
2022-08-04T03:28:51.967Z,99047.22
2022-08-04T03:31:42.663Z,99041.94
2022-08-04T03:34:37.523Z,99046.31
2022-08-04T03:37:23.367Z,99051.59
2022-08-04T03:40:24.125Z,99049.03
2022-08-04T03:43:10.336Z,99057.03
2022-08-04T03:46:23.405Z,99058.59
2022-08-04T03:49:12.909Z,99058.34
2022-08-04T03:52:17.103Z,99054.84
2022-08-04T03:55:19.777Z,99055.13
2022-08-04T03:57:52.570Z,99061.28
2022-08-04T04:00:22.017Z,99061.22
2022-08-04T04:03:12.045Z,99065.75
2022-08-04T04:06:15.562Z,99063.59
2022-08-04T04:09:06.724Z,99054.59
2022-08-04T04:12:09.443Z,99063.13
2022-08-04T04:14:55.156Z,99062.66
2022-08-04T04:17:37.358Z,99062.38
2022-08-04T04:20:21.940Z,99060.22
2022-08-04T04:23:12.359Z,99068.97
2022-08-04T04:25:43.461Z,99065.25
2022-08-04T04:28:45.023Z,99075.59
2022-08-04T04:31:43.836Z,99079.56
2022-08-04T04:34:10.909Z,99078.84
2022-08-04T04:37:10.026Z,99080.66
2022-08-04T04:40:10.399Z,99084.59
2022-08-04T04:43:09.812Z,99084.25
2022-08-04T04:45:42.798Z,99082.22
2022-08-04T04:48:32.341Z,99077.84
2022-08-04T04:51:05.446Z,99078.41
2022-08-04T04:54:00.599Z,99081.47
2022-08-04T04:56:44.209Z,99085.03
2022-08-04T04:59:15.723Z,99087.28
2022-08-04T05:02:13.019Z,99085.31
2022-08-04T05:05:21.533Z,99075.75
2022-08-04T05:07:58.622Z,99081.72
2022-08-04T05:11:03.045Z,99080.38
2022-08-04T05:14:36.651Z,99089.88
2022-08-04T05:16:32.497Z,99088.16
2022-08-04T05:19:28.833Z,99082.78
2022-08-04T05:22:13.908Z,99079.53
2022-08-04T05:24:45.321Z,99071.88
2022-08-04T05:27:19.629Z,99082.75
2022-08-04T05:29:56.821Z,99080.59
2022-08-04T05:32:32.884Z,99084.19
2022-08-04T05:35:09.515Z,99082.13
2022-08-04T05:37:39.159Z,99090.22
2022-08-04T05:40:08.720Z,99088.06
2022-08-04T05:42:39.821Z,99083.03
2022-08-04T05:45:08.883Z,99086.72
2022-08-04T05:47:37.349Z,99079.22
2022-08-04T05:50:06.137Z,99088.91
2022-08-04T05:52:36.549Z,99077.59
2022-08-04T05:55:04.796Z,99077.84
2022-08-04T05:57:33.051Z,99083.06
2022-08-04T06:00:19.541Z,99079.91
2022-08-04T06:02:52.985Z,99084.91
2022-08-04T06:05:20.454Z,99088.25
2022-08-04T06:08:07.718Z,99093.03
2022-08-04T06:10:38.578Z,99096.44
2022-08-04T06:13:45.330Z,99087.84
2022-08-04T06:16:02.815Z,99084.47
2022-08-04T06:18:35.333Z,99087.41
2022-08-04T06:21:22.714Z,99093.53
2022-08-04T06:23:53.620Z,99083.31
2022-08-04T06:26:30.173Z,99083.56
2022-08-04T06:28:58.070Z,99085.59
2022-08-04T06:32:30.605Z,99086.75
2022-08-04T06:34:35.305Z,99098.72
2022-08-04T06:37:03.526Z,99093.31
2022-08-04T06:39:33.192Z,99093.91
2022-08-04T06:42:21.737Z,99095.50
2022-08-04T06:44:52.021Z,99096.63
2022-08-04T06:47:21.581Z,99096.09
2022-08-04T06:51:31.939Z,99101.69
2022-08-04T06:52:40.129Z,99097.28
2022-08-04T06:55:08.323Z,99090.91
2022-08-04T06:57:36.890Z,99092.63
2022-08-04T07:00:06.388Z,99085.44
2022-08-04T07:02:38.972Z,99087.00
2022-08-04T07:05:08.614Z,99092.81
2022-08-04T07:07:36.976Z,99085.44
2022-08-04T07:10:25.129Z,99089.94
2022-08-04T07:12:53.009Z,99086.22
2022-08-04T07:15:22.715Z,99083.06
2022-08-04T07:17:52.247Z,99083.97
2022-08-04T07:20:34.103Z,99079.34
2022-08-04T07:23:06.499Z,99074.66
2022-08-04T07:26:00.278Z,99076.06
2022-08-04T07:28:27.563Z,99078.91
2022-08-04T07:30:56.052Z,99084.69
2022-08-04T07:33:24.685Z,99082.03
2022-08-04T07:36:04.928Z,99074.63
2022-08-04T07:38:48.234Z,99078.16
2022-08-04T07:41:42.510Z,99083.78
2022-08-04T07:44:14.469Z,99081.41
2022-08-04T07:46:42.985Z,99080.38
2022-08-04T07:49:09.901Z,99078.94
2022-08-04T07:51:37.449Z,99082.16
2022-08-04T07:54:06.244Z,99084.03
2022-08-04T07:56:38.061Z,99086.41
2022-08-04T07:59:06.407Z,99082.94
2022-08-04T08:01:35.068Z,99090.44
2022-08-04T08:04:03.101Z,99080.56
2022-08-04T08:06:33.248Z,99076.56
2022-08-04T08:09:13.576Z,99078.47
2022-08-04T08:12:35.252Z,99082.84
2022-08-04T08:14:35.583Z,99081.69
2022-08-04T08:17:03.519Z,99082.69
2022-08-04T08:19:32.821Z,99092.50
2022-08-04T08:22:01.452Z,99085.44
2022-08-04T08:24:31.168Z,99086.94
2022-08-04T08:27:00.459Z,99093.97
2022-08-04T08:29:29.807Z,99087.53
2022-08-04T08:32:02.688Z,99089.53
2022-08-04T08:34:33.023Z,99089.66
2022-08-04T08:37:45.261Z,99091.56
2022-08-04T08:40:41.106Z,99101.75
2022-08-04T08:44:00.629Z,99091.53
2022-08-04T08:46:49.496Z,99089.13
2022-08-04T08:50:00.764Z,99092.28
2022-08-04T08:53:01.036Z,99099.59
2022-08-04T08:55:52.383Z,99085.66
2022-08-04T08:58:29.505Z,99095.44
2022-08-04T09:01:08.694Z,99101.69
2022-08-04T09:04:04.974Z,99092.94
2022-08-04T09:06:48.541Z,99091.59
2022-08-04T09:09:36.607Z,99095.59
2022-08-04T09:12:19.198Z,99097.34
2022-08-04T09:15:05.626Z,99093.78
2022-08-04T09:17:42.275Z,99088.00
2022-08-04T09:20:27.818Z,99078.56
2022-08-04T09:23:08.113Z,99078.72
2022-08-04T09:25:42.818Z,99073.84
2022-08-04T09:28:50.816Z,99089.50
2022-08-04T09:31:15.316Z,99073.69
2022-08-04T09:33:51.655Z,99073.94
2022-08-04T09:36:46.557Z,99068.56
2022-08-04T09:39:59.878Z,99075.72
2022-08-04T09:42:46.033Z,99074.69
2022-08-04T09:45:42.590Z,99063.47
2022-08-04T09:48:32.611Z,99059.97
2022-08-04T09:51:00.245Z,99066.53
2022-08-04T09:53:51.503Z,99052.28
2022-08-04T09:56:26.911Z,99060.31
2022-08-04T09:59:24.282Z,99058.03
2022-08-04T10:01:59.949Z,99048.16
2022-08-04T10:04:31.198Z,99052.28
2022-08-04T10:07:07.446Z,99047.31
2022-08-04T10:09:55.839Z,99046.06
2022-08-04T10:12:44.916Z,99037.75
2022-08-04T10:15:20.925Z,99042.16
2022-08-04T10:18:00.665Z,99051.84
2022-08-04T10:20:59.004Z,99037.06
2022-08-04T10:24:07.697Z,99035.13
2022-08-04T10:26:49.101Z,99037.31
2022-08-04T10:29:39.205Z,99046.75
2022-08-04T10:32:36.944Z,99031.31
2022-08-04T10:35:15.986Z,99035.28
2022-08-04T10:38:06.455Z,99036.97
2022-08-04T10:40:45.583Z,99020.47
2022-08-04T10:43:50.773Z,99025.88
2022-08-04T10:46:26.379Z,99022.41
2022-08-04T10:49:10.330Z,99031.03
2022-08-04T10:52:11.410Z,99027.53
2022-08-04T10:55:21.599Z,99026.09
2022-08-04T10:58:04.511Z,99022.59
2022-08-04T11:00:35.848Z,99030.88
2022-08-04T11:03:25.367Z,99027.63
2022-08-04T11:06:00.802Z,99016.63
2022-08-04T11:08:39.013Z,99008.25
2022-08-04T11:11:13.254Z,99010.78
2022-08-04T11:14:07.025Z,99009.16
2022-08-04T11:16:43.230Z,99006.22
2022-08-04T11:19:13.139Z,99014.03
2022-08-04T11:21:45.093Z,99010.47
2022-08-04T11:24:22.952Z,99012.06
2022-08-04T11:27:20.177Z,99004.78
2022-08-04T11:30:13.225Z,99004.72
2022-08-04T11:32:59.391Z,98992.69
2022-08-04T11:35:35.676Z,98998.53
2022-08-04T11:38:12.763Z,98987.88
2022-08-04T11:40:57.692Z,98998.25
2022-08-04T11:44:03.175Z,98991.44
2022-08-04T11:46:53.345Z,98993.72
2022-08-04T11:49:56.857Z,98991.16
2022-08-04T11:52:23.008Z,98987.44
2022-08-04T11:54:52.711Z,98984.06
2022-08-04T11:57:36.324Z,98980.94
2022-08-04T12:00:13.419Z,98979.25
2022-08-04T12:03:12.079Z,98974.81
2022-08-04T12:06:03.771Z,98972.81
2022-08-04T12:08:51.898Z,98976.44
2022-08-04T12:11:28.636Z,98969.72
2022-08-04T12:14:10.338Z,98966.72
2022-08-04T12:17:05.102Z,98965.31
2022-08-04T12:20:03.755Z,98963.72
2022-08-04T12:22:37.077Z,98955.53
2022-08-04T12:25:09.835Z,98959.53
2022-08-04T12:27:49.548Z,98946.13
2022-08-04T12:30:59.730Z,98953.66
2022-08-04T12:33:12.873Z,98952.84
2022-08-04T12:36:10.130Z,98940.22
2022-08-04T12:38:48.699Z,98936.00
2022-08-04T12:41:23.682Z,98941.16
2022-08-04T12:43:51.148Z,98936.13
2022-08-04T12:46:22.745Z,98934.59
2022-08-04T12:48:50.795Z,98931.91
2022-08-04T12:52:06.617Z,98935.31
2022-08-04T12:54:10.355Z,98932.88
2022-08-04T12:56:39.013Z,98930.78
2022-08-04T12:59:12.732Z,98925.41
2022-08-04T13:02:09.426Z,98926.91
2022-08-04T13:04:36.456Z,98931.38
2022-08-04T13:07:10.009Z,98931.19
2022-08-04T13:09:38.302Z,98927.25
2022-08-04T13:12:12.444Z,98921.84
2022-08-04T13:14:44.639Z,98922.47
2022-08-04T13:17:12.427Z,98921.66
2022-08-04T13:19:41.838Z,98917.84
2022-08-04T13:22:09.419Z,98914.03
2022-08-04T13:24:56.939Z,98916.88
2022-08-04T13:27:26.832Z,98915.75
2022-08-04T13:30:00.602Z,98914.88
2022-08-04T13:32:31.769Z,98913.19
2022-08-04T13:35:01.956Z,98914.66
2022-08-04T13:37:39.460Z,98905.47
2022-08-04T13:40:10.136Z,98904.28
2022-08-04T13:42:39.094Z,98906.41
2022-08-04T13:45:07.405Z,98902.81
2022-08-04T13:47:38.329Z,98904.06
2022-08-04T13:50:23.653Z,98900.53
2022-08-04T13:52:55.732Z,98891.53
2022-08-04T13:55:28.588Z,98898.88
2022-08-04T13:58:24.381Z,98883.97
2022-08-04T14:00:58.702Z,98895.06
2022-08-04T14:03:32.603Z,98891.41
2022-08-04T14:06:13.580Z,98890.22
2022-08-04T14:09:15.515Z,98883.56
2022-08-04T14:12:10.893Z,98883.81
2022-08-04T14:14:54.256Z,98877.84
2022-08-04T14:17:29.833Z,98880.66
2022-08-04T14:20:00.719Z,98873.41
2022-08-04T14:22:28.988Z,98876.38
2022-08-04T14:25:05.098Z,98875.69
2022-08-04T14:27:47.648Z,98883.28
2022-08-04T14:30:26.803Z,98887.56
2022-08-04T14:32:59.363Z,98880.53
2022-08-04T14:35:57.481Z,98876.47
2022-08-04T14:38:24.720Z,98873.13
2022-08-04T14:41:02.789Z,98878.31
2022-08-04T14:43:30.107Z,98871.94
2022-08-04T14:46:05.158Z,98872.31
2022-08-04T14:48:32.262Z,98873.56
2022-08-04T14:50:59.169Z,98872.66
2022-08-04T14:53:29.443Z,98869.13
2022-08-04T14:55:59.065Z,98883.22
2022-08-04T14:58:39.009Z,98872.75
2022-08-04T15:01:11.756Z,98872.09
2022-08-04T15:03:50.453Z,98863.53
2022-08-04T15:06:28.690Z,98864.22
2022-08-04T15:09:00.374Z,98871.19
2022-08-04T15:11:28.712Z,98865.78
2022-08-04T15:13:56.784Z,98868.69
2022-08-04T15:16:26.231Z,98860.81
2022-08-04T15:18:56.887Z,98860.28
2022-08-04T15:21:28.293Z,98857.09
2022-08-04T15:23:57.337Z,98861.66
2022-08-04T15:26:30.144Z,98850.09
2022-08-04T15:29:05.523Z,98844.13
2022-08-04T15:32:03.815Z,98847.53
2022-08-04T15:34:26.229Z,98849.06
2022-08-04T15:36:57.110Z,98843.56
2022-08-04T15:39:45.262Z,98837.81
2022-08-04T15:42:34.619Z,98836.50
2022-08-04T15:45:20.970Z,98833.16
2022-08-04T15:48:03.231Z,98835.03
2022-08-04T15:50:31.122Z,98829.59
2022-08-04T15:53:00.975Z,98834.28
2022-08-04T15:55:38.521Z,98836.09
2022-08-04T15:58:10.889Z,98833.47
2022-08-04T16:00:49.888Z,98837.16
2022-08-04T16:03:58.447Z,98837.75
2022-08-04T16:06:27.512Z,98837.66
2022-08-04T16:09:04.936Z,98832.34
2022-08-04T16:11:33.108Z,98840.69
2022-08-04T16:14:03.027Z,98833.94
2022-08-04T16:16:39.720Z,98838.72
2022-08-04T16:19:08.441Z,98833.31
2022-08-04T16:21:47.071Z,98841.25
2022-08-04T16:24:35.277Z,98838.91
2022-08-04T16:27:03.855Z,98836.59
2022-08-04T16:29:34.575Z,98833.75
2022-08-04T16:32:04.715Z,98834.50
2022-08-04T16:34:48.628Z,98842.06
2022-08-04T16:37:19.312Z,98838.53
2022-08-04T16:39:50.180Z,98836.63
2022-08-04T16:42:30.415Z,98839.56
2022-08-04T16:45:02.035Z,98835.53
2022-08-04T16:47:47.280Z,98833.38
2022-08-04T16:50:24.780Z,98836.66
2022-08-04T16:52:53.981Z,98838.00
2022-08-04T16:55:23.832Z,98833.13
2022-08-04T16:57:52.580Z,98839.47
2022-08-04T17:00:30.762Z,98826.84
2022-08-04T17:02:58.025Z,98834.69
2022-08-04T17:05:39.426Z,98843.53
2022-08-04T17:10:56.330Z,98840.53
2022-08-04T17:14:00.892Z,98838.31
2022-08-04T17:16:23.887Z,98835.03
2022-08-04T17:18:53.721Z,98834.91
2022-08-04T17:21:23.940Z,98839.53
2022-08-04T17:24:15.325Z,98849.25
2022-08-04T17:26:41.415Z,98844.09
2022-08-04T17:29:09.475Z,98845.16
2022-08-04T17:31:38.177Z,98844.34
2022-08-04T17:34:15.788Z,98846.94
2022-08-04T17:36:44.000Z,98840.91
2022-08-04T17:39:17.294Z,98840.03
2022-08-04T17:41:48.657Z,98846.16
2022-08-04T17:44:17.797Z,98845.13
2022-08-04T17:46:48.396Z,98848.13
2022-08-04T17:49:18.510Z,98853.31
2022-08-04T17:52:05.579Z,98850.88
2022-08-04T17:54:36.596Z,98849.25
2022-08-04T17:57:20.227Z,98848.91
2022-08-04T17:59:58.826Z,98851.47
2022-08-04T18:02:33.093Z,98854.88
2022-08-04T18:05:07.534Z,98860.63
2022-08-04T18:08:39.151Z,98859.25
2022-08-04T18:10:51.626Z,98864.25
2022-08-04T18:13:27.322Z,98861.78
2022-08-04T18:16:04.979Z,98872.16
2022-08-04T18:18:33.270Z,98867.78
2022-08-04T18:21:02.813Z,98862.88
2022-08-04T18:23:32.802Z,98873.44
2022-08-04T18:26:01.830Z,98865.69
2022-08-04T18:28:30.825Z,98879.59
2022-08-04T18:31:00.439Z,98871.41
2022-08-04T18:33:40.677Z,98877.78
2022-08-04T18:36:35.311Z,98884.47
2022-08-04T18:39:13.010Z,98877.41
2022-08-04T18:42:01.384Z,98879.94
2022-08-04T18:44:52.307Z,98881.09
2022-08-04T18:47:29.587Z,98886.56
2022-08-04T18:50:59.886Z,98881.31
2022-08-04T18:52:45.330Z,98876.22
2022-08-04T18:55:55.690Z,98890.44
2022-08-04T18:58:07.015Z,98888.00
2022-08-04T19:00:35.025Z,98887.69
2022-08-04T19:03:02.356Z,98888.19
2022-08-04T19:05:37.732Z,98890.22
2022-08-04T19:08:33.396Z,98898.84
2022-08-04T19:10:59.888Z,98898.31
2022-08-04T19:13:28.169Z,98902.19
2022-08-04T19:15:55.155Z,98903.69
2022-08-04T19:18:25.831Z,98907.00
2022-08-04T19:20:55.541Z,98898.91
2022-08-04T19:24:10.812Z,98897.09
2022-08-04T19:26:23.796Z,98901.53
2022-08-04T19:28:55.184Z,98905.81
2022-08-04T19:31:28.401Z,98905.72
2022-08-04T19:34:04.895Z,98903.19
2022-08-04T19:36:34.726Z,98897.50
2022-08-04T19:39:09.394Z,98895.44
2022-08-04T19:42:05.194Z,98899.84
2022-08-04T19:48:12.268Z,98902.19
2022-08-04T19:50:04.645Z,98900.25
2022-08-04T19:52:37.568Z,98899.13
2022-08-04T19:55:09.806Z,98893.31
2022-08-04T19:57:46.126Z,98900.94
2022-08-04T20:00:32.808Z,98904.31
2022-08-04T20:03:00.830Z,98898.50
2022-08-04T20:05:52.933Z,98898.13
2022-08-04T20:08:15.434Z,98889.63
2022-08-04T20:10:51.579Z,98896.28
2022-08-04T20:13:20.848Z,98889.59
2022-08-04T20:15:57.431Z,98894.09
2022-08-04T20:18:36.763Z,98891.66
2022-08-04T20:21:18.919Z,98902.22
2022-08-04T20:23:48.413Z,98902.09
2022-08-04T20:26:17.313Z,98897.38
2022-08-04T20:28:45.957Z,98902.59
2022-08-04T20:31:19.007Z,98901.75
2022-08-04T20:33:49.333Z,98900.19
2022-08-04T20:36:23.088Z,98896.53
2022-08-04T20:38:54.635Z,98898.34
2022-08-04T20:41:22.398Z,98892.28
2022-08-04T20:43:50.261Z,98894.94
2022-08-04T20:46:29.354Z,98905.63
2022-08-04T20:48:58.361Z,98893.38
2022-08-04T20:51:31.960Z,98897.97
2022-08-04T20:54:16.763Z,98892.00
2022-08-04T20:56:50.726Z,98901.09
2022-08-04T20:59:19.758Z,98898.44
2022-08-04T21:01:49.446Z,98900.50
2022-08-04T21:04:34.701Z,98902.44
2022-08-04T21:07:11.215Z,98900.22
2022-08-04T21:09:50.019Z,98898.66
2022-08-04T21:12:27.378Z,98894.28
2022-08-04T21:15:14.090Z,98891.94
2022-08-04T21:17:58.385Z,98896.69
2022-08-04T21:20:31.593Z,98895.22
2022-08-04T21:23:02.004Z,98899.19
2022-08-04T21:25:30.875Z,98890.41
2022-08-04T21:27:58.529Z,98887.88
2022-08-04T21:30:26.848Z,98895.16
2022-08-04T21:32:55.063Z,98898.75
2022-08-04T21:38:16.517Z,98894.63
2022-08-04T21:40:55.539Z,98896.56
2022-08-04T21:46:11.415Z,98894.81
2022-08-04T21:48:39.456Z,98899.66
2022-08-04T21:51:58.807Z,98894.84
2022-08-04T21:54:09.616Z,98895.19
2022-08-04T21:56:41.948Z,98892.78
2022-08-04T21:59:30.628Z,98890.66
2022-08-04T22:02:00.099Z,98892.66
2022-08-04T22:04:36.639Z,98894.31
2022-08-04T22:07:04.699Z,98897.13
2022-08-04T22:09:38.484Z,98899.91
2022-08-04T22:12:10.373Z,98901.72
2022-08-04T22:14:39.522Z,98903.63
2022-08-04T22:17:06.573Z,98909.81
2022-08-04T22:19:56.009Z,98901.31
2022-08-04T22:22:26.215Z,98905.16
2022-08-04T22:25:01.420Z,98905.47
2022-08-04T22:27:47.345Z,98904.97
2022-08-04T22:30:17.076Z,98912.31
2022-08-04T22:32:47.030Z,98900.91
2022-08-04T22:35:36.629Z,98907.00
2022-08-04T22:38:06.715Z,98903.50
2022-08-04T22:40:38.619Z,98904.47
2022-08-04T22:43:31.398Z,98898.88
2022-08-04T22:45:52.508Z,98899.53
2022-08-04T22:48:20.535Z,98903.88
2022-08-04T22:50:47.752Z,98898.69
2022-08-04T22:53:17.947Z,98897.06
2022-08-04T22:56:07.543Z,98894.41
2022-08-04T22:58:32.660Z,98898.13
2022-08-04T23:01:01.099Z,98888.69
2022-08-04T23:03:37.665Z,98887.94
2022-08-04T23:06:11.748Z,98887.41
2022-08-04T23:08:43.213Z,98880.56
2022-08-04T23:11:14.690Z,98884.44
2022-08-04T23:13:42.077Z,98883.88
2022-08-04T23:16:10.595Z,98876.97
2022-08-04T23:18:40.109Z,98872.81
2022-08-04T23:21:10.355Z,98882.72
2022-08-04T23:23:55.470Z,98887.50
2022-08-04T23:26:27.765Z,98879.00
2022-08-04T23:28:56.613Z,98875.59
2022-08-04T23:31:24.644Z,98876.56
2022-08-04T23:33:52.356Z,98869.44
2022-08-04T23:36:29.936Z,98880.25
2022-08-04T23:39:04.216Z,98875.16
2022-08-04T23:41:53.479Z,98871.66
2022-08-04T23:44:24.888Z,98873.66
2022-08-04T23:47:01.028Z,98869.41
2022-08-04T23:49:44.214Z,98869.50
2022-08-04T23:52:27.621Z,98872.47
2022-08-04T23:55:00.254Z,98863.88
2022-08-04T23:57:30.832Z,98866.63
